Time;durP1;ratioP1;P1;durP2;ratioP2;P2;SDS_P1;SDS_P2;PMS_P1;PMS_P2;Temp;Humidity;BMP_temperature;BMP_pressure;BME280_temperature;BME280_humidity;BME280_pressure;Samples;Min_cycle;Max_cycle;Signal;HPM_P1;HPM_P2
2021/09/12 00:00:53;;;;;;;13.18;11.73;;;;;;;16.95;66.16;99755.28;1727336;83;21548;-77
2021/09/12 00:03:21;;;;;;;14.55;12.23;;;;;;;16.91;66.33;99755.61;1727408;83;21015;-73
2021/09/12 00:05:49;;;;;;;18.23;13.00;;;;;;;16.89;66.31;99753.72;1726363;83;22096;-75
2021/09/12 00:08:15;;;;;;;16.67;11.63;;;;;;;16.87;66.56;99757.84;1706091;83;21028;-73
2021/09/12 00:10:44;;;;;;;12.80;11.45;;;;;;;16.87;66.60;99758.65;1737387;82;20970;-72
2021/09/12 00:13:10;;;;;;;15.13;13.15;;;;;;;16.86;66.75;99757.03;1743283;82;21023;-69
2021/09/12 00:15:38;;;;;;;13.43;12.10;;;;;;;16.87;66.65;99752.41;1743196;82;20994;-71
2021/09/12 00:18:05;;;;;;;14.38;12.70;;;;;;;16.89;66.56;99748.83;1743939;82;20977;-70
2021/09/12 00:20:31;;;;;;;17.05;13.88;;;;;;;16.92;66.62;99753.70;1743738;82;21554;-68
2021/09/12 00:22:58;;;;;;;18.15;14.78;;;;;;;16.93;66.52;99758.83;1717481;82;21034;-69
2021/09/12 00:25:25;;;;;;;14.25;12.65;;;;;;;16.94;66.46;99756.92;1717324;82;20985;-68
2021/09/12 00:27:51;;;;;;;14.25;12.78;;;;;;;16.97;66.45;99763.16;1741291;82;20999;-70
2021/09/12 00:30:17;;;;;;;19.80;14.83;;;;;;;17.00;66.41;99759.30;1739613;82;21146;-69
2021/09/12 00:32:44;;;;;;;19.05;14.10;;;;;;;17.05;66.51;99761.14;1741258;82;20958;-69
2021/09/12 00:35:13;;;;;;;17.05;13.03;;;;;;;17.08;66.54;99757.84;1740210;82;21464;-70
2021/09/12 00:37:39;;;;;;;15.10;12.37;;;;;;;17.12;66.67;99760.23;1741387;82;21636;-69
2021/09/12 00:40:09;;;;;;;16.12;12.82;;;;;;;17.11;66.89;99761.89;1739590;82;20908;-77
2021/09/12 00:42:35;;;;;;;15.98;12.75;;;;;;;17.04;67.07;99762.78;1739921;82;21059;-73
2021/09/12 00:45:04;;;;;;;13.68;12.28;;;;;;;17.00;67.21;99761.20;1716379;82;20995;-73
2021/09/12 00:47:30;;;;;;;19.25;13.15;;;;;;;16.97;67.29;99761.80;1697641;83;20943;-73
2021/09/12 00:49:56;;;;;;;15.75;14.10;;;;;;;16.92;67.42;99763.22;1700250;83;20963;-73
2021/09/12 00:52:24;;;;;;;13.53;11.60;;;;;;;16.88;67.50;99757.52;1725507;83;20947;-72
2021/09/12 00:54:52;;;;;;;12.30;11.10;;;;;;;16.86;67.48;99758.38;1728247;83;21911;-73
2021/09/12 00:57:18;;;;;;;14.33;11.43;;;;;;;16.80;67.66;99756.81;1726940;83;21014;-76
2021/09/12 00:59:45;;;;;;;15.45;13.30;;;;;;;16.72;67.74;99760.17;1703548;83;20955;-72
2021/09/12 01:02:13;;;;;;;17.55;12.18;;;;;;;16.68;67.85;99754.25;1719758;83;21599;-68
2021/09/12 01:04:39;;;;;;;15.32;13.10;;;;;;;16.65;67.92;99755.62;1725095;83;21043;-69
2021/09/12 01:07:08;;;;;;;16.35;13.13;;;;;;;16.59;68.05;99761.41;1723869;83;20976;-70
2021/09/12 01:09:38;;;;;;;13.18;11.93;;;;;;;16.50;68.26;99756.55;1714017;83;21010;-69
2021/09/12 01:12:07;;;;;;;18.12;12.18;;;;;;;16.44;68.48;99755.55;1711624;83;21056;-69
2021/09/12 01:14:35;;;;;;;13.95;12.50;;;;;;;16.42;68.61;99757.73;1711400;83;21057;-72
2021/09/12 01:17:03;;;;;;;17.07;12.68;;;;;;;16.43;68.67;99759.36;1711554;83;20941;-67
2021/09/12 01:19:32;;;;;;;14.70;12.82;;;;;;;16.43;68.72;99754.74;1712229;83;20988;-74
2021/09/12 01:22:05;;;;;;;14.13;12.65;;;;;;;16.50;68.65;99758.45;1702404;83;21016;-68
2021/09/12 01:24:31;;;;;;;12.60;11.30;;;;;;;16.56;68.49;99751.89;1703979;83;21038;-68
2021/09/12 01:26:58;;;;;;;17.62;13.38;;;;;;;16.61;68.29;99746.98;1693471;83;21093;-68
2021/09/12 01:29:25;;;;;;;14.80;12.07;;;;;;;16.64;68.11;99752.67;1699905;83;21059;-68
2021/09/12 01:31:51;;;;;;;21.23;12.78;;;;;;;16.64;68.00;99750.50;1700851;83;21334;-69
2021/09/12 01:34:18;;;;;;;13.58;12.13;;;;;;;16.64;67.97;99763.53;1679784;83;21007;-68
2021/09/12 01:36:44;;;;;;;12.70;11.08;;;;;;;16.64;67.84;99758.09;1699684;84;21026;-67
2021/09/12 01:39:10;;;;;;;13.83;12.20;;;;;;;16.63;67.71;99756.47;1705807;83;21526;-79
2021/09/12 01:41:37;;;;;;;13.28;10.48;;;;;;;16.55;67.79;99757.05;1685405;85;21620;-67
2021/09/12 01:44:04;;;;;;;13.13;11.73;;;;;;;16.49;68.19;99754.96;1685273;85;21187;-68
2021/09/12 01:46:31;;;;;;;15.13;13.53;;;;;;;16.46;68.33;99758.77;1659648;85;21578;-68
2021/09/12 01:49:01;;;;;;;12.05;10.80;;;;;;;16.43;68.41;99756.09;1659539;83;20982;-69
2021/09/12 01:51:27;;;;;;;13.95;12.47;;;;;;;16.42;68.42;99757.19;1685301;85;21029;-66
2021/09/12 01:53:53;;;;;;;17.23;12.75;;;;;;;16.41;68.54;99754.75;1685326;85;21026;-68
2021/09/12 01:56:20;;;;;;;15.50;12.70;;;;;;;16.41;68.40;99757.47;1658782;85;21105;-68
2021/09/12 01:58:47;;;;;;;13.65;12.35;;;;;;;16.40;68.44;99753.94;1685323;85;21058;-69
2021/09/12 02:01:13;;;;;;;14.80;11.73;;;;;;;16.43;68.50;99758.00;1728787;83;21026;-69
2021/09/12 02:03:39;;;;;;;14.40;12.85;;;;;;;16.44;68.36;99754.20;1687371;83;21558;-67
2021/09/12 02:06:06;;;;;;;14.38;11.53;;;;;;;16.47;68.38;99748.18;1742191;82;21007;-68
2021/09/12 02:08:34;;;;;;;13.83;12.10;;;;;;;16.51;68.33;99752.75;1742358;82;21574;-68
2021/09/12 02:11:00;;;;;;;15.30;12.95;;;;;;;16.55;68.20;99758.41;1735194;82;20959;-68
2021/09/12 02:13:26;;;;;;;15.15;13.55;;;;;;;16.55;68.36;99757.05;1726010;83;20952;-72
2021/09/12 02:15:55;;;;;;;13.55;12.15;;;;;;;16.55;68.28;99749.72;1725633;82;21010;-71
2021/09/12 02:18:21;;;;;;;15.53;12.58;;;;;;;16.55;68.07;99747.00;1707196;83;21008;-67
2021/09/12 02:20:49;;;;;;;17.12;13.68;;;;;;;16.58;67.95;99744.30;1720905;83;20980;-67
2021/09/12 02:23:17;;;;;;;14.70;13.13;;;;;;;16.59;67.76;99741.05;1643148;86;21525;-67
2021/09/12 02:25:45;;;;;;;16.60;14.90;;;;;;;16.59;67.58;99744.58;1653406;86;21014;-67
2021/09/12 02:28:12;;;;;;;13.20;11.90;;;;;;;16.57;67.45;99748.89;1684431;84;20997;-68
2021/09/12 02:30:38;;;;;;;15.70;13.28;;;;;;;16.56;67.41;99751.34;1703874;83;21006;-67
2021/09/12 02:33:05;;;;;;;12.68;11.22;;;;;;;16.55;67.28;99755.15;1720698;82;21289;-69
2021/09/12 02:35:31;;;;;;;17.00;12.00;;;;;;;16.53;67.10;99750.57;1711578;83;21588;-67
2021/09/12 02:37:58;;;;;;;13.28;10.72;;;;;;;16.48;67.17;99747.91;1704532;84;21146;-68
2021/09/12 02:40:24;;;;;;;14.13;12.68;;;;;;;16.46;67.40;99751.98;1704414;83;21650;-67
2021/09/12 02:42:53;;;;;;;13.90;11.60;;;;;;;16.40;67.79;99744.44;1651796;86;20967;-67
2021/09/12 02:45:21;;;;;;;15.25;12.63;;;;;;;16.38;68.31;99743.12;1654526;86;21079;-70
2021/09/12 02:47:48;;;;;;;12.93;11.63;;;;;;;16.35;68.54;99745.88;1719642;83;20988;-68
2021/09/12 02:50:14;;;;;;;14.13;12.05;;;;;;;16.34;68.79;99749.67;1725807;83;20979;-68
2021/09/12 02:52:40;;;;;;;15.23;11.45;;;;;;;16.33;69.08;99747.23;1725735;83;20983;-71
2021/09/12 02:55:09;;;;;;;14.03;12.60;;;;;;;16.33;69.72;99752.67;1681093;83;21105;-80
2021/09/12 02:57:36;;;;;;;15.58;13.83;;;;;;;16.29;70.18;99744.30;1718725;83;21125;-69
2021/09/12 03:00:04;;;;;;;15.20;12.98;;;;;;;16.25;70.63;99746.51;1725667;83;20991;-67
2021/09/12 03:02:30;;;;;;;16.95;13.80;;;;;;;16.21;70.83;99741.39;1704911;83;21087;-68
2021/09/12 03:04:58;;;;;;;16.50;14.50;;;;;;;16.18;71.21;99739.23;1726083;83;21552;-68
2021/09/12 03:07:25;;;;;;;15.85;14.00;;;;;;;16.14;71.50;99745.78;1705106;83;21125;-69
2021/09/12 03:09:53;;;;;;;20.65;13.70;;;;;;;16.09;71.72;99748.00;1724261;83;21044;-69
2021/09/12 03:12:21;;;;;;;15.25;13.50;;;;;;;16.07;71.97;99742.03;1742573;82;20951;-69
2021/09/12 03:14:47;;;;;;;14.70;13.18;;;;;;;16.02;72.23;99740.72;1743119;82;20999;-69
2021/09/12 03:17:14;;;;;;;17.45;13.65;;;;;;;15.99;72.54;99738.58;1730621;82;21574;-69
2021/09/12 03:19:42;;;;;;;17.12;13.60;;;;;;;15.98;72.85;99735.60;1736538;82;21034;-67
2021/09/12 03:22:10;;;;;;;15.93;13.45;;;;;;;15.98;73.25;99732.89;1742359;82;21077;-68
2021/09/12 03:24:38;;;;;;;16.67;12.75;;;;;;;15.98;74.12;99733.43;1742419;82;21018;-69
2021/09/12 03:27:06;;;;;;;17.85;14.47;;;;;;;15.94;74.98;99733.20;1743161;82;20947;-68
2021/09/12 03:29:33;;;;;;;16.05;13.68;;;;;;;15.92;75.51;99734.59;1743208;82;20994;-68
2021/09/12 03:31:59;;;;;;;16.42;13.53;;;;;;;15.89;76.20;99735.14;1740384;82;21038;-68
2021/09/12 03:34:25;;;;;;;18.02;14.50;;;;;;;15.89;76.56;99729.71;1711864;83;21096;-70
2021/09/12 03:36:52;;;;;;;16.73;14.80;;;;;;;15.89;76.99;99729.71;1720988;83;20975;-68
2021/09/12 03:39:19;;;;;;;16.20;14.35;;;;;;;15.92;77.69;99735.95;1728683;82;21039;-69
2021/09/12 03:41:45;;;;;;;16.60;14.87;;;;;;;15.95;78.30;99736.18;1728580;83;21054;-68
2021/09/12 03:44:12;;;;;;;18.73;16.75;;;;;;;15.97;78.40;99740.76;1728950;83;21043;-68
2021/09/12 03:46:39;;;;;;;17.55;14.40;;;;;;;16.06;78.57;99744.51;1721229;83;21054;-71
2021/09/12 03:49:06;;;;;;;19.80;16.62;;;;;;;16.11;78.85;99738.23;1728290;83;21040;-67
2021/09/12 03:51:32;;;;;;;26.33;16.62;;;;;;;16.14;79.05;99734.39;1702307;83;21474;-68
2021/09/12 03:53:59;;;;;;;15.50;14.00;;;;;;;16.18;79.21;99737.33;1728529;83;20998;-71
2021/09/12 03:56:25;;;;;;;22.90;16.93;;;;;;;16.23;79.54;99738.64;1727217;83;21067;-67
2021/09/12 03:58:52;;;;;;;19.57;15.13;;;;;;;16.26;79.47;99744.06;1680211;83;21138;-68
2021/09/12 04:01:18;;;;;;;18.77;15.78;;;;;;;16.26;79.61;99739.42;1701393;83;21979;-67
2021/09/12 04:03:45;;;;;;;18.73;16.73;;;;;;;16.27;80.04;99744.30;1728532;83;21059;-68
2021/09/12 04:06:11;;;;;;;17.80;16.05;;;;;;;16.27;80.11;99746.47;1726699;83;21010;-69
2021/09/12 04:08:38;;;;;;;20.65;16.40;;;;;;;16.30;79.98;99745.11;1726837;83;21051;-68
2021/09/12 04:11:06;;;;;;;18.67;16.15;;;;;;;16.25;79.77;99743.80;1717486;83;20909;-69
2021/09/12 04:13:33;;;;;;;17.98;15.55;;;;;;;16.23;79.94;99740.00;1717648;81;21206;-68
2021/09/12 04:15:59;;;;;;;15.03;13.55;;;;;;;16.24;80.27;99737.55;1706271;83;20975;-68
2021/09/12 04:18:27;;;;;;;17.20;15.32;;;;;;;16.26;80.44;99739.42;1727503;82;20923;-68
2021/09/12 04:20:53;;;;;;;16.70;15.00;;;;;;;16.30;80.45;99737.77;1730675;82;20987;-68
2021/09/12 04:23:21;;;;;;;18.92;16.20;;;;;;;16.34;80.23;99739.36;1737415;82;20978;-68
2021/09/12 04:25:48;;;;;;;16.85;15.25;;;;;;;16.38;80.02;99737.14;1731104;82;21524;-68
2021/09/12 04:28:15;;;;;;;17.23;15.60;;;;;;;16.40;79.91;99738.23;1711317;83;20975;-69
2021/09/12 04:30:42;;;;;;;21.23;15.32;;;;;;;16.40;79.91;99742.30;1730635;83;21062;-69
2021/09/12 04:33:09;;;;;;;14.85;13.32;;;;;;;16.37;79.92;99745.02;1715181;82;20999;-68
2021/09/12 04:35:35;;;;;;;21.60;15.78;;;;;;;16.36;79.92;99745.30;1729330;82;21215;-71
2021/09/12 04:38:03;;;;;;;19.80;17.80;;;;;;;16.34;79.83;99742.08;1728013;82;20955;-71
2021/09/12 04:40:30;;;;;;;50.12;40.78;;;;;;;16.37;79.66;99741.49;1716223;82;21011;-67
2021/09/12 04:43:00;;;;;;;27.07;17.17;;;;;;;16.42;79.41;99742.26;1737441;82;20939;-69
2021/09/12 04:45:27;;;;;;;18.52;16.15;;;;;;;16.50;79.04;99732.12;1737308;82;21019;-68
2021/09/12 04:47:53;;;;;;;18.17;15.35;;;;;;;16.57;78.68;99729.89;1731281;82;21055;-69
2021/09/12 04:50:20;;;;;;;19.85;17.80;;;;;;;16.63;78.14;99729.86;1730490;82;21037;-72
2021/09/12 04:52:47;;;;;;;23.18;16.67;;;;;;;16.60;77.95;99731.23;1734124;82;21043;-68
2021/09/12 04:55:13;;;;;;;20.05;16.87;;;;;;;16.62;77.86;99734.48;1731041;82;21018;-72
2021/09/12 04:57:40;;;;;;;17.50;15.15;;;;;;;16.68;77.25;99728.45;1728053;82;21113;-68
2021/09/12 05:00:08;;;;;;;17.60;15.15;;;;;;;16.76;76.61;99725.90;1729120;82;21122;-68
2021/09/12 05:02:34;;;;;;;17.52;15.75;;;;;;;16.83;76.03;99726.92;1732911;82;21023;-71
2021/09/12 05:05:02;;;;;;;20.12;15.78;;;;;;;16.88;75.90;99729.00;1730303;82;21523;-73
2021/09/12 05:07:30;;;;;;;17.07;15.30;;;;;;;16.91;75.74;99730.34;1730448;83;20952;-70
2021/09/12 05:09:56;;;;;;;19.82;16.52;;;;;;;16.95;75.26;99725.94;1714609;82;21011;-68
2021/09/12 05:12:22;;;;;;;19.80;16.20;;;;;;;17.03;75.00;99726.64;1729342;82;21190;-68
2021/09/12 05:14:50;;;;;;;19.17;17.07;;;;;;;17.10;74.72;99729.02;1724220;83;20936;-70
2021/09/12 05:17:17;;;;;;;22.07;16.45;;;;;;;17.18;74.55;99728.36;1725512;83;21543;-69
2021/09/12 05:19:43;;;;;;;19.95;17.82;;;;;;;17.25;74.29;99730.18;1722360;83;20987;-67
2021/09/12 05:22:10;;;;;;;17.60;15.00;;;;;;;17.37;74.18;99728.64;1722136;83;21575;-69
2021/09/12 05:24:36;;;;;;;19.55;16.05;;;;;;;17.46;73.91;99725.28;1696577;84;21061;-70
2021/09/12 05:27:04;;;;;;;16.35;14.85;;;;;;;17.53;73.66;99725.16;1696808;83;20995;-70
2021/09/12 05:29:30;;;;;;;17.75;15.30;;;;;;;17.60;73.25;99725.61;1719655;83;21527;-82
2021/09/12 05:31:57;;;;;;;16.23;14.53;;;;;;;17.69;72.89;99732.57;1720101;83;21000;-71
2021/09/12 05:34:24;;;;;;;15.10;13.53;;;;;;;17.75;72.26;99725.92;1700061;83;21623;-68
2021/09/12 05:36:51;;;;;;;16.62;14.45;;;;;;;17.81;71.92;99720.12;1724499;83;21233;-71
2021/09/12 05:39:17;;;;;;;19.12;13.62;;;;;;;17.86;71.56;99719.23;1704955;83;21063;-70
2021/09/12 05:41:45;;;;;;;16.93;15.23;;;;;;;17.94;71.40;99721.27;1725737;83;21086;-71
2021/09/12 05:44:11;;;;;;;15.78;14.07;;;;;;;18.03;71.28;99726.86;1719156;83;21075;-69
2021/09/12 05:46:39;;;;;;;17.35;15.10;;;;;;;18.12;71.00;99719.07;1725625;83;21015;-68
2021/09/12 05:49:06;;;;;;;19.15;14.60;;;;;;;18.22;70.64;99724.31;1723287;83;21209;-67
2021/09/12 05:51:32;;;;;;;15.83;13.93;;;;;;;18.33;70.28;99723.58;1673703;84;21059;-70
2021/09/12 05:53:59;;;;;;;17.57;14.58;;;;;;;18.42;69.92;99726.41;1694060;84;21501;-73
2021/09/12 05:56:27;;;;;;;19.17;15.60;;;;;;;18.51;69.61;99728.72;1693993;84;20959;-69
2021/09/12 05:58:53;;;;;;;15.68;14.07;;;;;;;18.57;69.34;99733.78;1719339;83;21039;-70
2021/09/12 06:01:21;;;;;;;15.38;13.48;;;;;;;18.64;69.16;99723.31;1725174;83;21224;-72
2021/09/12 06:03:47;;;;;;;13.38;12.03;;;;;;;18.72;68.97;99725.88;1725184;83;20912;-68
2021/09/12 06:06:14;;;;;;;20.23;13.95;;;;;;;18.79;68.54;99724.13;1725597;83;21520;-70
2021/09/12 06:08:42;;;;;;;17.35;15.50;;;;;;;18.85;68.17;99724.28;1724904;83;20904;-69
2021/09/12 06:11:10;;;;;;;15.28;13.40;;;;;;;18.89;67.65;99722.55;1720396;82;21493;-70
2021/09/12 06:13:38;;;;;;;21.90;13.80;;;;;;;18.97;67.24;99736.83;1743707;82;21080;-74
2021/09/12 06:16:07;;;;;;;14.87;13.22;;;;;;;19.03;66.93;99732.34;1741631;82;20923;-69
2021/09/12 06:18:34;;;;;;;15.25;13.18;;;;;;;19.10;66.26;99730.55;1740322;82;21101;-68
2021/09/12 06:21:03;;;;;;;16.75;14.93;;;;;;;19.16;66.12;99733.42;1739855;82;21019;-69
2021/09/12 06:23:32;;;;;;;17.12;14.10;;;;;;;19.25;65.66;99734.87;1743978;82;20998;-73
2021/09/12 06:25:59;;;;;;;16.57;13.72;;;;;;;19.31;65.53;99734.47;1744149;81;21855;-69
2021/09/12 06:28:27;;;;;;;18.12;14.68;;;;;;;19.38;65.45;99729.94;1743994;82;21043;-68
2021/09/12 06:30:53;;;;;;;16.67;13.50;;;;;;;19.46;65.15;99733.35;1742061;82;21026;-67
2021/09/12 06:33:21;;;;;;;14.85;11.55;;;;;;;19.53;64.72;99735.89;1702055;83;20959;-71
2021/09/12 06:35:48;;;;;;;15.23;13.50;;;;;;;19.62;64.24;99735.16;1728830;83;21536;-70
2021/09/12 06:38:16;;;;;;;16.40;14.25;;;;;;;19.68;63.82;99736.09;1729011;83;21053;-68
2021/09/12 06:40:42;;;;;;;14.03;11.75;;;;;;;19.77;63.42;99734.80;1728504;83;21585;-68
2021/09/12 06:43:09;;;;;;;15.58;12.70;;;;;;;19.84;62.38;99737.36;1728775;83;20991;-70
2021/09/12 06:45:36;;;;;;;19.73;14.40;;;;;;;19.91;61.90;99739.64;1689589;83;20963;-70
2021/09/12 06:48:03;;;;;;;22.77;14.28;;;;;;;19.98;61.69;99739.47;1703729;83;21013;-71
2021/09/12 06:50:30;;;;;;;16.17;13.58;;;;;;;20.06;61.68;99737.09;1703315;83;21138;-67
2021/09/12 06:52:57;;;;;;;16.37;14.33;;;;;;;20.13;61.33;99732.02;1727800;83;21010;-71
2021/09/12 06:55:24;;;;;;;14.95;13.22;;;;;;;20.20;61.22;99735.09;1703625;83;21078;-70
2021/09/12 06:57:50;;;;;;;25.88;16.90;;;;;;;20.28;61.38;99742.55;1725515;83;22289;-68
2021/09/12 07:00:18;;;;;;;23.15;15.68;;;;;;;20.33;61.31;99729.61;1713207;83;21043;-70
2021/09/12 07:02:44;;;;;;;23.70;15.20;;;;;;;20.38;61.12;99733.55;1699419;83;21226;-67
2021/09/12 07:05:11;;;;;;;18.95;15.43;;;;;;;20.44;60.71;99734.22;1699849;83;20974;-67
2021/09/12 07:07:39;;;;;;;18.80;14.80;;;;;;;20.50;60.64;99737.62;1668670;85;20920;-69
2021/09/12 07:10:07;;;;;;;23.00;15.98;;;;;;;20.55;60.54;99738.86;1734590;82;21042;-67
2021/09/12 07:12:33;;;;;;;19.40;14.65;;;;;;;20.62;60.24;99743.33;1743005;82;21081;-67
2021/09/12 07:15:00;;;;;;;20.37;16.25;;;;;;;20.68;59.86;99740.13;1739063;82;23343;-69
2021/09/12 07:17:26;;;;;;;19.23;16.60;;;;;;;20.74;59.59;99740.23;1741873;82;20942;-71
2021/09/12 07:22:27;;;;;;;17.90;13.88;;;;;;;20.86;59.45;99743.16;1712738;82;20955;-67
2021/09/12 07:24:53;;;;;;;23.25;15.00;;;;;;;20.94;59.07;99738.05;1741991;81;21027;-69
2021/09/12 07:27:20;;;;;;;17.30;14.03;;;;;;;21.02;58.76;99740.00;1718863;82;21216;-76
2021/09/12 07:29:47;;;;;;;15.70;13.98;;;;;;;21.07;58.42;99741.22;1718670;82;21049;-69
2021/09/12 07:32:14;;;;;;;23.77;16.17;;;;;;;21.15;58.55;99743.22;1739100;82;21051;-70
2021/09/12 07:34:41;;;;;;;18.57;14.43;;;;;;;21.23;58.34;99743.23;1737821;82;20990;-72
2021/09/12 07:37:07;;;;;;;20.10;14.78;;;;;;;21.31;58.20;99742.44;1714925;82;21523;-69
2021/09/12 07:39:34;;;;;;;18.32;14.43;;;;;;;21.42;57.72;99747.05;1738890;82;21084;-70
2021/09/12 07:42:01;;;;;;;16.30;14.58;;;;;;;21.51;56.61;99744.31;1718619;82;21613;-70
2021/09/12 07:44:28;;;;;;;20.77;15.20;;;;;;;21.59;56.73;99744.31;1741983;82;21570;-71
2021/09/12 07:46:56;;;;;;;15.88;13.40;;;;;;;21.66;56.62;99746.58;1742137;82;20986;-70
2021/09/12 07:49:22;;;;;;;14.93;13.32;;;;;;;21.73;56.44;99741.41;1742037;82;21147;-68
2021/09/12 07:51:49;;;;;;;19.73;14.68;;;;;;;21.83;56.20;99744.39;1738891;81;22072;-68
2021/09/12 07:54:15;;;;;;;17.62;14.73;;;;;;;21.91;56.14;99742.23;1717042;82;21066;-69
2021/09/12 07:56:43;;;;;;;20.75;14.33;;;;;;;21.98;56.10;99741.19;1711644;83;20982;-69
2021/09/12 07:59:10;;;;;;;14.70;11.73;;;;;;;22.03;55.37;99739.09;1713362;83;21048;-67
2021/09/12 08:01:37;;;;;;;24.00;13.90;;;;;;;22.12;54.52;99741.25;1702441;83;21051;-69
2021/09/12 08:04:05;;;;;;;29.95;22.75;;;;;;;22.21;54.34;99741.23;1726604;83;21974;-73
2021/09/12 08:06:33;;;;;;;23.30;16.75;;;;;;;22.31;54.07;99744.19;1704007;83;21008;-70
2021/09/12 08:09:01;;;;;;;18.50;14.87;;;;;;;22.39;53.77;99740.64;1718920;82;20982;-69
2021/09/12 08:11:29;;;;;;;15.25;13.70;;;;;;;22.48;53.19;99737.31;1738230;82;20904;-70
2021/09/12 08:13:56;;;;;;;14.75;12.93;;;;;;;22.55;52.30;99732.91;1742633;82;21007;-72
2021/09/12 08:16:24;;;;;;;15.98;13.35;;;;;;;22.65;51.88;99739.17;1738237;82;20931;-70
2021/09/12 08:18:50;;;;;;;23.18;12.25;;;;;;;22.74;51.75;99733.92;1742151;82;20943;-70
2021/09/12 08:21:18;;;;;;;16.90;12.18;;;;;;;22.84;51.56;99736.30;1742053;82;20911;-70
2021/09/12 08:23:45;;;;;;;12.55;11.25;;;;;;;22.93;51.26;99734.31;1741933;82;21111;-69
2021/09/12 08:26:11;;;;;;;18.07;11.25;;;;;;;23.00;50.27;99731.86;1737446;82;21553;-70
2021/09/12 08:28:38;;;;;;;13.60;11.15;;;;;;;23.06;48.46;99728.38;1743473;81;21472;-72
2021/09/12 08:31:06;;;;;;;13.85;10.95;;;;;;;23.11;48.61;99730.12;1744219;82;21006;-66
2021/09/12 08:33:32;;;;;;;17.48;10.70;;;;;;;23.20;49.58;99734.42;1697851;83;20993;-68
2021/09/12 08:35:59;;;;;;;14.53;11.43;;;;;;;23.26;49.67;99728.95;1683577;85;21532;-68
2021/09/12 08:38:26;;;;;;;15.80;11.85;;;;;;;23.32;49.05;99724.88;1684128;85;21080;-68
2021/09/12 08:40:57;;;;;;;17.12;12.35;;;;;;;23.39;48.66;99725.16;1725224;83;21246;-69
2021/09/12 08:43:27;;;;;;;58.15;13.85;;;;;;;23.44;48.81;99723.62;1728562;82;21026;-70
2021/09/12 08:45:54;;;;;;;12.90;11.43;;;;;;;23.52;49.21;99721.13;1725483;83;21027;-69
2021/09/12 08:48:20;;;;;;;12.78;11.55;;;;;;;23.59;49.58;99724.16;1711938;83;21055;-69
2021/09/12 08:50:47;;;;;;;13.18;10.18;;;;;;;23.67;48.74;99718.59;1717613;83;21455;-71
2021/09/12 08:53:14;;;;;;;13.32;10.78;;;;;;;23.79;47.81;99723.33;1695137;83;21390;-69
2021/09/12 08:55:41;;;;;;;13.08;10.75;;;;;;;23.86;47.45;99722.22;1699383;83;21511;-71
2021/09/12 08:58:11;;;;;;;14.40;11.15;;;;;;;23.93;47.40;99719.75;1699599;83;21507;-70
2021/09/12 09:00:43;;;;;;;16.07;11.78;;;;;;;24.02;47.54;99725.16;1698352;83;21569;-70
2021/09/12 09:03:10;;;;;;;15.90;11.00;;;;;;;24.12;46.79;99724.16;1738881;82;20971;-69
2021/09/12 09:05:41;;;;;;;13.80;11.88;;;;;;;24.20;46.67;99724.67;1742982;82;21293;-69
2021/09/12 09:08:17;;;;;;;16.30;11.00;;;;;;;24.28;46.28;99725.70;1744296;82;21051;-69
2021/09/12 09:10:50;;;;;;;12.60;11.33;;;;;;;24.34;45.92;99717.48;1742925;82;21030;-69
2021/09/12 09:13:34;;;;;;;;;;;;;;;24.42;45.85;99718.52;1744035;82;20995;-70
2021/09/12 09:15:58;;;;;;;11.45;10.23;;;;;;;24.46;44.99;99719.47;1716699;82;20156;-71
2021/09/12 09:18:37;;;;;;;12.60;11.15;;;;;;;24.51;45.31;99727.50;1744364;82;21566;-72
2021/09/12 09:21:30;;;;;;;15.85;10.18;;;;;;;24.58;45.15;99721.64;1718544;82;20927;-67
2021/09/12 09:24:23;;;;;;;;;;;;;;;24.63;45.06;99713.74;1746970;82;21076;-73
2021/09/12 09:27:03;;;;;;;11.97;10.27;;;;;;;24.61;45.14;99718.20;1714645;83;20147;-71
2021/09/12 09:29:35;;;;;;;10.78;9.23;;;;;;;24.65;43.79;99725.99;1726068;82;21006;-74
2021/09/12 09:32:14;;;;;;;11.28;9.60;;;;;;;24.73;42.83;99706.41;1687106;83;22404;-70
2021/09/12 09:34:42;;;;;;;14.10;10.65;;;;;;;24.80;43.31;99705.83;1683058;85;21045;-71
2021/09/12 09:37:22;;;;;;;10.90;8.95;;;;;;;24.89;43.35;99708.72;1712857;83;21041;-69
2021/09/12 09:39:54;;;;;;;14.53;10.82;;;;;;;24.96;42.99;99716.41;1687338;83;21034;-69
2021/09/12 09:42:38;;;;;;;9.37;8.53;;;;;;;24.95;43.10;99705.98;1687467;83;21005;-72
2021/09/12 09:45:17;;;;;;;14.68;10.72;;;;;;;24.99;43.18;99698.63;1638219;85;21819;-69
2021/09/12 09:47:46;;;;;;;14.95;10.28;;;;;;;25.05;43.00;99694.50;1703653;83;21035;-67
2021/09/12 09:50:20;;;;;;;15.72;10.23;;;;;;;25.15;43.08;99698.73;1684144;85;20987;-72
2021/09/12 09:52:52;;;;;;;17.57;9.63;;;;;;;25.22;42.50;99700.34;1741385;82;21558;-74
2021/09/12 09:55:23;;;;;;;9.28;8.15;;;;;;;25.21;42.58;99696.55;1742074;82;21058;-68
2021/09/12 09:57:52;;;;;;;10.55;9.00;;;;;;;25.27;42.20;99696.55;1709829;83;21197;-73
2021/09/12 10:00:20;;;;;;;11.63;9.23;;;;;;;25.32;42.10;99695.73;1733413;82;21013;-68
2021/09/12 10:02:47;;;;;;;10.48;9.33;;;;;;;25.33;41.87;99689.05;1669300;83;20939;-70
2021/09/12 10:05:17;;;;;;;14.78;8.63;;;;;;;25.36;42.08;99691.70;1721263;83;21011;-70
2021/09/12 10:07:45;;;;;;;11.93;9.53;;;;;;;25.47;42.04;99692.80;1712079;83;21238;-71
2021/09/12 10:10:13;;;;;;;12.50;8.48;;;;;;;25.57;41.62;99694.53;1718988;83;21587;-69
2021/09/12 10:12:50;;;;;;;11.18;8.60;;;;;;;25.65;41.48;99693.36;1701336;83;21002;-69
2021/09/12 10:15:22;;;;;;;19.48;15.85;;;;;;;25.70;41.03;99696.68;1733782;82;22218;-70
2021/09/12 10:17:49;;;;;;;13.18;10.85;;;;;;;25.71;40.92;99692.75;1743231;81;21070;-69
2021/09/12 10:20:17;;;;;;;10.68;9.58;;;;;;;25.72;40.92;99688.84;1740154;82;21156;-70
2021/09/12 10:22:56;;;;;;;11.68;8.18;;;;;;;25.73;41.28;99687.70;1724931;83;21151;-69
2021/09/12 10:25:26;;;;;;;11.28;9.73;;;;;;;25.79;40.81;99691.81;1728439;83;20975;-71
2021/09/12 10:28:05;;;;;;;10.98;9.78;;;;;;;25.85;40.65;99693.15;1712945;83;21568;-71
2021/09/12 10:30:38;;;;;;;17.05;9.55;;;;;;;25.90;40.53;99690.14;1725769;83;21061;-69
2021/09/12 10:33:16;;;;;;;11.93;9.30;;;;;;;25.97;40.50;99688.16;1724642;83;21039;-71
2021/09/12 10:35:56;;;;;;;13.70;9.10;;;;;;;26.05;40.17;99685.24;1687659;83;21527;-69
2021/09/12 10:38:38;;;;;;;9.78;8.40;;;;;;;26.13;39.83;99691.77;1689538;83;21046;-67
2021/09/12 10:41:09;;;;;;;14.78;9.75;;;;;;;26.18;39.65;99686.56;1694627;83;21269;-74
2021/09/12 10:43:42;;;;;;;11.22;9.53;;;;;;;26.18;39.80;99683.81;1691862;83;21128;-73
2021/09/12 10:46:17;;;;;;;12.10;8.95;;;;;;;26.21;39.72;99677.03;1742423;82;20996;-72
2021/09/12 10:49:03;;;;;;;9.45;8.45;;;;;;;26.31;39.79;99671.57;1707059;82;21121;-72
2021/09/12 10:51:32;;;;;;;9.95;8.43;;;;;;;26.41;39.47;99675.98;1744185;82;21591;-69
2021/09/12 10:54:00;;;;;;;9.95;8.15;;;;;;;26.51;39.12;99678.78;1744329;82;21050;-69
2021/09/12 10:56:29;;;;;;;12.73;8.53;;;;;;;26.63;38.68;99676.50;1744181;82;20990;-69
2021/09/12 10:59:11;;;;;;;13.88;10.28;;;;;;;26.71;38.58;99672.77;1744220;82;21062;-73
2021/09/12 11:01:48;;;;;;;11.28;8.38;;;;;;;26.80;38.27;99670.05;1744357;82;21860;-69
2021/09/12 11:04:18;;;;;;;9.48;8.60;;;;;;;26.88;38.26;99664.94;1713665;83;20993;-70
2021/09/12 11:06:47;;;;;;;13.58;9.05;;;;;;;26.99;38.05;99664.38;1687221;83;21058;-74
2021/09/12 11:09:27;;;;;;;13.03;9.40;;;;;;;27.02;38.00;99659.51;1728928;83;21544;-72
2021/09/12 11:12:04;;;;;;;9.95;8.10;;;;;;;26.97;38.09;99659.78;1713940;83;21038;-71
2021/09/12 11:14:31;;;;;;;9.85;8.23;;;;;;;27.04;38.11;99658.00;1714198;83;21140;-69
2021/09/12 11:17:12;;;;;;;10.13;7.25;;;;;;;27.19;37.83;99648.88;1744593;82;20982;-70
2021/09/12 11:19:39;;;;;;;15.05;9.25;;;;;;;27.28;37.27;99654.19;1744110;82;21066;-74
2021/09/12 11:22:08;;;;;;;20.88;9.00;;;;;;;27.33;37.40;99656.66;1719183;82;20985;-69
2021/09/12 11:24:34;;;;;;;10.15;8.40;;;;;;;27.42;37.23;99650.34;1713749;83;21021;-69
2021/09/12 11:27:04;;;;;;;9.95;8.68;;;;;;;27.48;36.77;99641.95;1722208;83;21092;-71